Flight Track Log - Related Links

Times and Time Zones

All times are in EDT time to prevent confusion due to time zone crossing. See the N589H flight status page for this flight to view local times or setup timezone preferences in your user account.

Time Position Orientation Groundspeed Altitude Reporting Facility
EDT Latitude Longitude Course Direction KTS MPH feet Rate Location/Type
Wed 03:53:56 PM 25.8025 -80.2722 53° Northeast 158 182 1,000  Level Miami Center
Wed 03:54:27 PM 25.8175 -80.2497 53° Northeast 165 190 1,800 1,750 Climbing Miami Center
Wed 03:55:08 PM 25.8392 -80.2203 51° Northeast 159 183 3,100 1,967 Climbing Miami Center
Wed 03:55:28 PM 25.8436 -80.2089 67° East 165 190 3,800 1,900 Climbing Miami Center
Wed 03:56:08 PM 25.8731 -80.1981 18° North 187 215 5,000 2,328 Climbing Miami Center
Wed 03:56:35 PM 25.9000 -80.2033 350° North 193 222 6,400 2,000 Climbing Miami Center
Wed 03:57:08 PM 25.9292 -80.2067 354° North 221 254 7,000 1,082 Climbing Miami Center
Wed 03:57:36 PM 25.9517 -80.2328 314° West 231 266 7,500 900 Climbing Miami Center
Wed 03:58:08 PM 25.9761 -80.2542 322° Northwest 245 282 7,900 968 Climbing Miami Center
Wed 03:58:38 PM 25.9900 -80.2914 293° West 264 304 8,500 1,000 Climbing Miami Center
Wed 03:59:08 PM 25.9975 -80.3217 285° West 270 311 8,900 1,701 Climbing Miami Center
Wed 03:59:45 PM 26.0108 -80.3800 284° West 254 292 10,400 7,100 Climbing Miami Center
Wed 04:00:08 PM 26.0208 -80.3986 301° West 208 239 16,000 2,449 Climbing Miami Center
Wed 04:00:34 PM 26.0242 -80.4336 276° West 209 241 12,400 -2,600 Descending Miami Center
Wed 04:01:08 PM 26.0339 -80.4639 290° West 215 247 13,400 2,060 Climbing Miami Center
Wed 04:01:41 PM 26.0369 -80.5056 275° West 212 244 14,700 2,600 Climbing Miami Center
Wed 04:02:08 PM 26.0492 -80.5222 309° West 215 247 16,000 1,103 Climbing Miami Center
Wed 04:03:08 PM 26.0894 -80.5764 310° West 215 247 16,300  Climbing Miami Center
Wed 04:04:08 PM 26.1444 -80.6339 317° Northwest 242 278 16,000 -150 Descending Miami Center
Wed 04:05:08 PM 26.1950 -80.6978 311° West 258 297 16,000  Level Miami Center
Wed 04:06:08 PM 26.2475 -80.7622 312° West 272 313 16,000  Level Miami Center
Wed 04:07:08 PM 26.3022 -80.8289 312° West 278 320 16,000  Level Miami Center
Wed 04:08:08 PM 26.3528 -80.8908 312° West 278 320 16,000  Level Miami Center
Wed 04:09:08 PM 26.4053 -80.9550 312° West 278 320 16,000  Level Miami Center
Wed 04:10:08 PM 26.4619 -81.0175 315° West 278 320 16,000  Level Miami Center
Wed 04:11:08 PM 26.5269 -81.0825 318° Northwest 278 320 16,000  Level Miami Center
Wed 04:12:08 PM 26.5836 -81.1400 318° Northwest 284 327 16,000  Level Miami Center
Wed 04:13:08 PM 26.6425 -81.2003 318° Northwest 289 333 16,000  Level Miami Center
Wed 04:14:08 PM 26.7033 -81.2608 318° Northwest 294 338 16,000  Level Miami Center
Wed 04:15:08 PM 26.7597 -81.3211 316° Northwest 294 338 16,000  Level Miami Center
Wed 04:16:08 PM 26.8206 -81.3814 319° Northwest 294 338 16,000  Level Miami Center
Wed 04:17:08 PM 26.8708 -81.4392 314° West 289 333 16,000  Level Miami Center
Wed 04:18:08 PM 26.9231 -81.5042 312° West 289 333 16,000 -250 Level Miami Center
Wed 04:19:08 PM 26.9794 -81.5694 314° West 289 333 15,500 -1,000 Descending Miami Center
Wed 04:20:08 PM 27.0356 -81.6392 312° West 278 320 14,000 -1,450 Descending Miami Center
Wed 04:21:08 PM 27.0919 -81.7022 315° West 278 320 12,600 -1,400 Descending Miami Center
Wed 04:22:08 PM 27.1461 -81.7675 313° West 278 320 11,200 -800 Descending Miami Center
Wed 04:23:08 PM 27.1983 -81.8303 313° West 273 314 11,000 -100 Descending Miami Center
Wed 04:24:08 PM 27.2503 -81.8956 312° West 273 314 11,000  Level Miami Center
Wed 04:25:08 PM 27.3064 -81.9611 314° West 278 320 11,000 -500 Level Miami Center
Wed 04:26:08 PM 27.3625 -82.0267 314° West 278 320 10,000 -1,350 Descending Miami Center
Wed 04:27:08 PM 27.4067 -82.0800 313° West 278 320 8,300 -1,000 Descending Miami Center
Wed 04:28:08 PM 27.4586 -82.1433 313° West 278 320 8,000 -150 Descending Miami Center
Wed 04:29:08 PM 27.5106 -82.2067 313° West 278 320 8,000 -450 Level Miami Center
Wed 04:30:08 PM 27.5331 -82.2731 291° West 255 293 7,100 -1,450 Descending Miami Center
Wed 04:31:08 PM 27.5442 -82.3625 278° West 255 293 5,100 -2,170 Descending Miami Center
Wed 04:31:42 PM 27.5500 -82.4167 277° West 260 299 3,700 -1,340 Descending Tampa TRACON
Wed 04:32:42 PM 27.5500 -82.5000 270° West 258 297 3,000 -350 Descending Tampa TRACON
Wed 04:33:42 PM 27.5667 -82.5833 283° West 255 293 3,000 -105 Level Tampa TRACON
Wed 04:34:36 PM 27.5833 -82.6500 286° West 241 277 2,800 -500 Descending Tampa TRACON
Wed 04:35:42 PM 27.6333 -82.6833 329° Northwest 205 236 2,000 -381 Descending Tampa TRACON
Wed 04:36:42 PM 27.6833 -82.6667 16° North 191 220 2,000  Level Tampa TRACON
Wed 04:37:43 PM 27.7333 -82.6667 360° North 213 245 2,000 -50 Level Tampa TRACON
Wed 04:38:43 PM 27.8000 -82.6667 360° North 207 238 1,900 -316 Descending Tampa TRACON
Wed 04:39:37 PM 27.8333 -82.6833 336° Northwest 141 162 1,400 -632 Descending Tampa TRACON
Wed 04:40:37 PM 27.8667 -82.6833 360° North 113 130 700 -700 Descending Tampa TRACON
Wed 04:42:00 PM 27.9000 -82.6833 North  Level FlightAware Approximate
Wed 04:49:00 PM 27.9100 -82.6875 North  Level Estimated
Wed 04:50:00 PM 27.9100 -82.6875 160° South  Level Estimated

Login

Don't have an account? Register now (free) for customized features, flight alerts, and more!